Terminal Aerodrome Forecast
Issued by NWS Portland, ME

Home | Current Version | Previous Version | Text Only | Print | Product List | Glossary On
Versions: 1 2 3 4 5 6 7 8 9 10 11 12 13 14 15 16 17 18 19 20 21
000
FTUS41 KGYX 220801 AAA
TAFCON
TAF AMD
KCON 220801Z 2208/2306 17005KT P6SM -SHRA BKN050 OVC080
     FM221000 VRB03KT P6SM BKN080 OVC150
     FM221800 32003KT P6SM FEW250=

USA.gov is the U.S. government's official web portal to all federal, state and local government web resources and services.